createdAt,value
2022-11-18T00:01:29.697Z,2.79
2022-11-18T00:03:57.793Z,2.81
2022-11-18T00:06:28.386Z,2.71
2022-11-18T00:08:57.947Z,2.71
2022-11-18T00:11:45.708Z,2.60
2022-11-18T00:14:19.571Z,2.42
2022-11-18T00:16:48.506Z,2.21
2022-11-18T00:19:17.397Z,2.33
2022-11-18T00:21:45.405Z,2.50
2022-11-18T00:24:13.277Z,2.66
2022-11-18T00:26:41.070Z,2.87
2022-11-18T00:29:10.777Z,2.83
2022-11-18T00:31:39.304Z,2.84
2022-11-18T00:34:13.092Z,2.91
2022-11-18T00:36:41.706Z,2.91
2022-11-18T00:39:14.902Z,2.91
2022-11-18T00:42:02.366Z,2.86
2022-11-18T00:44:30.554Z,2.65
2022-11-18T00:46:58.670Z,2.67
2022-11-18T00:49:26.564Z,2.66
2022-11-18T00:51:54.316Z,2.70
2022-11-18T00:54:22.150Z,2.57
2022-11-18T00:56:49.993Z,2.68
2022-11-18T00:59:18.074Z,2.64
2022-11-18T01:01:46.353Z,2.65
2022-11-18T01:04:14.344Z,2.72
2022-11-18T01:06:42.255Z,2.90
2022-11-18T01:09:10.043Z,3.04
2022-11-18T01:11:56.436Z,2.96
2022-11-18T01:14:25.670Z,2.99
2022-11-18T01:16:57.433Z,2.92
2022-11-18T01:19:26.150Z,2.80
2022-11-18T01:21:53.995Z,2.93
2022-11-18T01:24:22.913Z,2.84
2022-11-18T01:26:50.723Z,2.70
2022-11-18T01:29:18.802Z,2.74
2022-11-18T01:32:09.360Z,2.68
2022-11-18T01:34:34.922Z,2.59
2022-11-18T01:37:02.611Z,2.62
2022-11-18T01:39:31.581Z,2.62
2022-11-18T01:41:59.289Z,2.43
2022-11-18T01:44:56.054Z,2.16
2022-11-18T01:47:26.698Z,1.99
2022-11-18T01:49:54.711Z,2.00
2022-11-18T01:52:23.373Z,2.12
2022-11-18T01:54:55.979Z,2.00
2022-11-18T01:57:27.596Z,1.85
2022-11-18T01:59:58.116Z,1.79
2022-11-18T02:02:27.158Z,1.69
2022-11-18T02:04:56.730Z,1.71
2022-11-18T02:07:25.492Z,1.51
2022-11-18T02:09:53.957Z,1.60
2022-11-18T02:12:22.029Z,1.81
2022-11-18T02:14:51.556Z,1.86
2022-11-18T02:17:54.200Z,1.99
2022-11-18T02:20:31.769Z,1.90
2022-11-18T02:23:08.697Z,1.89
2022-11-18T02:26:03.014Z,1.71
2022-11-18T02:28:47.775Z,1.62
2022-11-18T02:31:27.129Z,1.62
2022-11-18T02:34:02.251Z,1.52
2022-11-18T02:36:40.226Z,1.49
2022-11-18T02:39:16.893Z,1.47
2022-11-18T02:41:47.558Z,1.37
2022-11-18T02:44:17.316Z,1.41
2022-11-18T02:46:50.005Z,1.47
2022-11-18T02:49:23.740Z,1.59
2022-11-18T02:51:52.629Z,1.79
2022-11-18T02:54:23.438Z,1.90
2022-11-18T02:56:52.750Z,1.77
2022-11-18T02:59:21.079Z,1.68
2022-11-18T03:01:48.885Z,1.66
2022-11-18T03:04:18.215Z,1.54
2022-11-18T03:06:58.873Z,1.52
2022-11-18T03:09:39.795Z,1.53
2022-11-18T03:12:40.098Z,1.46
2022-11-18T03:15:29.362Z,1.37
2022-11-18T03:18:16.729Z,1.28
2022-11-18T03:20:50.463Z,1.03
2022-11-18T03:23:24.153Z,1.01
2022-11-18T03:25:56.409Z,1.05
2022-11-18T03:28:24.366Z,0.96
2022-11-18T03:31:40.842Z,0.97
2022-11-18T03:34:10.889Z,0.87
2022-11-18T03:36:49.979Z,0.91
2022-11-18T03:39:22.508Z,0.81
2022-11-18T03:41:56.027Z,0.80
2022-11-18T03:44:29.921Z,0.76
2022-11-18T03:47:35.321Z,0.89
2022-11-18T03:50:16.167Z,0.93
2022-11-18T03:52:45.495Z,0.96
2022-11-18T03:55:19.312Z,1.07
2022-11-18T03:58:10.342Z,1.12
2022-11-18T04:00:42.664Z,1.15
2022-11-18T04:03:11.552Z,1.13
2022-11-18T04:05:41.645Z,1.12
2022-11-18T04:08:15.002Z,1.23
2022-11-18T04:10:49.981Z,1.29
2022-11-18T04:13:26.238Z,1.29
2022-11-18T04:15:54.452Z,1.27
2022-11-18T04:18:22.146Z,1.23
2022-11-18T04:20:50.109Z,1.27
2022-11-18T04:23:17.922Z,1.27
2022-11-18T04:25:46.075Z,1.29
2022-11-18T04:28:13.768Z,1.21
2022-11-18T04:30:41.475Z,1.13
2022-11-18T04:33:09.229Z,1.17
2022-11-18T04:35:36.981Z,1.22
2022-11-18T04:38:05.193Z,1.33
2022-11-18T04:40:33.109Z,1.42
2022-11-18T04:43:00.899Z,1.28
2022-11-18T04:45:28.699Z,1.19
2022-11-18T04:48:01.961Z,1.32
2022-11-18T04:50:31.211Z,1.31
2022-11-18T04:52:58.965Z,1.29
2022-11-18T04:55:27.396Z,1.28
2022-11-18T04:57:55.240Z,1.25
2022-11-18T05:00:23.146Z,1.22
2022-11-18T05:02:50.954Z,1.25
2022-11-18T05:05:18.706Z,1.27
2022-11-18T05:07:46.731Z,1.26
2022-11-18T05:10:17.140Z,1.27
2022-11-18T05:12:51.987Z,1.41
2022-11-18T05:15:23.980Z,1.50
2022-11-18T05:17:51.956Z,1.49
2022-11-18T05:20:19.843Z,1.47
2022-11-18T05:22:47.706Z,1.50
2022-11-18T05:25:15.546Z,1.50
2022-11-18T05:27:43.324Z,1.36
2022-11-18T05:30:14.453Z,1.29
2022-11-18T05:32:42.265Z,1.31
2022-11-18T05:35:10.022Z,1.38
2022-11-18T05:37:37.771Z,1.39
2022-11-18T05:40:06.367Z,1.42
2022-11-18T05:42:53.139Z,1.43
2022-11-18T05:45:21.076Z,1.36
2022-11-18T05:48:00.868Z,1.39
2022-11-18T05:50:28.607Z,1.38
2022-11-18T05:52:57.042Z,1.32
2022-11-18T05:55:29.883Z,1.38
2022-11-18T05:57:58.078Z,1.48
2022-11-18T06:00:26.202Z,1.38
2022-11-18T06:02:55.816Z,1.40
2022-11-18T06:05:26.111Z,1.52
2022-11-18T06:07:57.130Z,1.51
2022-11-18T06:10:30.958Z,1.62
2022-11-18T06:13:04.052Z,1.69
2022-11-18T06:15:36.865Z,1.59
2022-11-18T06:18:13.848Z,1.43
2022-11-18T06:20:42.152Z,1.49
2022-11-18T06:23:10.442Z,1.45
2022-11-18T06:25:40.568Z,1.61
2022-11-18T06:28:10.836Z,1.84
2022-11-18T06:30:39.104Z,1.71
2022-11-18T06:33:07.053Z,1.79
2022-11-18T06:35:34.990Z,1.78
2022-11-18T06:38:02.901Z,1.73
2022-11-18T06:40:34.727Z,1.81
2022-11-18T06:43:27.785Z,1.79
2022-11-18T06:46:21.428Z,1.64
2022-11-18T06:48:49.385Z,1.65
2022-11-18T06:51:17.220Z,1.64
2022-11-18T06:53:45.035Z,1.66
2022-11-18T06:56:14.811Z,1.67
2022-11-18T06:58:42.993Z,1.64
2022-11-18T07:01:19.640Z,1.74
2022-11-18T07:03:48.454Z,1.74
2022-11-18T07:06:19.608Z,1.78
2022-11-18T07:08:48.014Z,1.75
2022-11-18T07:11:18.805Z,1.61
2022-11-18T07:13:50.019Z,1.62
2022-11-18T07:16:26.447Z,1.59
2022-11-18T07:18:55.872Z,1.52
2022-11-18T07:21:28.837Z,1.42
2022-11-18T07:23:57.556Z,1.27
2022-11-18T07:26:25.595Z,1.29
2022-11-18T07:28:54.054Z,1.43
2022-11-18T07:31:21.953Z,1.53
2022-11-18T07:33:50.231Z,1.52
2022-11-18T07:36:21.080Z,1.32
2022-11-18T07:38:50.175Z,1.19
2022-11-18T07:41:20.946Z,1.19
2022-11-18T07:43:59.008Z,1.33
2022-11-18T07:46:34.503Z,1.37
2022-11-18T07:49:06.294Z,1.35
2022-11-18T07:51:37.486Z,1.44
2022-11-18T07:54:17.289Z,1.61
2022-11-18T07:56:47.226Z,1.48
2022-11-18T07:59:16.652Z,1.44
2022-11-18T08:01:46.317Z,1.63
2022-11-18T08:04:15.537Z,1.48
2022-11-18T08:06:43.809Z,1.47
2022-11-18T08:09:12.013Z,1.51
2022-11-18T08:11:40.920Z,1.63
2022-11-18T08:14:09.059Z,1.67
2022-11-18T08:16:36.957Z,1.33
2022-11-18T08:19:05.351Z,1.37
2022-11-18T08:21:33.205Z,1.14
2022-11-18T08:24:01.212Z,1.24
2022-11-18T08:26:29.654Z,1.20
2022-11-18T08:28:57.807Z,1.22
2022-11-18T08:31:27.872Z,1.08
2022-11-18T08:34:01.605Z,1.12
2022-11-18T08:36:33.048Z,1.11
2022-11-18T08:39:02.788Z,1.20
2022-11-18T08:41:38.734Z,1.28
2022-11-18T08:44:08.575Z,1.21
2022-11-18T08:46:36.833Z,1.17
2022-11-18T08:49:06.132Z,1.19
2022-11-18T08:51:34.414Z,1.06
2022-11-18T08:54:02.393Z,1.11
2022-11-18T08:56:30.742Z,1.15
2022-11-18T08:58:59.083Z,1.08
2022-11-18T09:01:27.917Z,0.86
2022-11-18T09:03:57.880Z,0.64
2022-11-18T09:06:26.685Z,0.79
2022-11-18T09:08:54.975Z,1.10
2022-11-18T09:11:25.772Z,1.12
2022-11-18T09:16:46.044Z,1.05
2022-11-18T09:19:45.444Z,1.10
2022-11-18T09:22:05.329Z,1.09
2022-11-18T09:24:34.332Z,1.19
2022-11-18T09:27:09.602Z,1.13
2022-11-18T09:29:41.097Z,1.18
2022-11-18T09:32:10.644Z,1.30
2022-11-18T09:34:38.760Z,1.19
2022-11-18T09:37:07.654Z,1.15
2022-11-18T09:39:39.146Z,1.20
2022-11-18T09:42:40.683Z,1.19
2022-11-18T09:45:25.344Z,0.99
2022-11-18T09:47:58.712Z,1.33
2022-11-18T09:50:48.552Z,1.31
2022-11-18T09:53:22.730Z,1.24
2022-11-18T09:55:52.502Z,1.30
2022-11-18T09:58:36.281Z,1.52
2022-11-18T10:01:13.118Z,1.51
2022-11-18T10:03:41.558Z,1.56
2022-11-18T10:06:10.977Z,1.59
2022-11-18T10:09:00.420Z,1.51
2022-11-18T10:11:43.368Z,1.58
2022-11-18T10:14:30.414Z,1.70
2022-11-18T10:17:23.960Z,1.73
2022-11-18T10:20:21.372Z,1.68
2022-11-18T10:23:15.319Z,1.69
2022-11-18T10:25:43.309Z,1.67
2022-11-18T10:28:29.268Z,1.86
2022-11-18T10:31:11.926Z,2.02
2022-11-18T10:33:40.013Z,2.08
2022-11-18T10:36:17.084Z,2.33
2022-11-18T10:38:49.900Z,2.32
2022-11-18T10:41:21.614Z,2.43
2022-11-18T10:43:56.465Z,2.62
2022-11-18T10:46:39.212Z,2.85
2022-11-18T10:49:10.525Z,2.53
2022-11-18T10:51:42.405Z,2.61
2022-11-18T10:54:22.314Z,2.81
2022-11-18T10:57:06.250Z,2.99
2022-11-18T10:59:41.537Z,2.97
2022-11-18T11:02:20.606Z,2.72
2022-11-18T11:04:51.133Z,2.57
2022-11-18T11:07:31.757Z,2.70
2022-11-18T11:10:08.692Z,2.70
2022-11-18T11:12:47.070Z,2.60
2022-11-18T11:15:21.169Z,2.70
2022-11-18T11:18:14.495Z,2.95
2022-11-18T11:20:42.835Z,3.02
2022-11-18T11:23:12.965Z,3.08
2022-11-18T11:29:00.412Z,2.69
2022-11-18T11:32:08.567Z,2.34
2022-11-18T11:34:47.024Z,2.31
2022-11-18T11:37:34.710Z,2.34
2022-11-18T11:40:21.208Z,2.32
2022-11-18T11:43:11.052Z,2.34
2022-11-18T11:45:48.258Z,2.28
2022-11-18T11:48:53.005Z,2.35
2022-11-18T11:51:26.130Z,2.32
2022-11-18T11:53:59.647Z,2.18
2022-11-18T11:56:35.775Z,2.13
2022-11-18T11:59:26.826Z,2.08
2022-11-18T12:02:29.711Z,2.31
2022-11-18T12:05:09.185Z,2.44
2022-11-18T12:07:59.366Z,2.26
2022-11-18T12:10:48.831Z,2.47
2022-11-18T12:13:34.912Z,2.58
2022-11-18T12:16:20.636Z,2.70
2022-11-18T12:19:01.373Z,2.68
2022-11-18T12:21:45.294Z,2.62
2022-11-18T12:24:37.009Z,2.79
2022-11-18T12:27:14.202Z,2.82
2022-11-18T12:29:54.509Z,2.86
2022-11-18T12:32:29.531Z,2.84
2022-11-18T12:35:01.433Z,3.00
2022-11-18T12:37:29.352Z,3.00
2022-11-18T12:39:59.768Z,3.13
2022-11-18T12:43:05.332Z,3.05
2022-11-18T12:45:43.400Z,3.05
2022-11-18T12:48:27.750Z,3.13
2022-11-18T12:50:59.659Z,3.14
2022-11-18T12:53:31.335Z,3.35
2022-11-18T12:55:59.400Z,3.51
2022-11-18T12:58:28.204Z,3.53
2022-11-18T13:01:08.665Z,3.29
2022-11-18T13:03:36.685Z,3.25
2022-11-18T13:06:18.674Z,3.15
2022-11-18T13:08:53.459Z,3.15
2022-11-18T13:11:40.962Z,3.22
2022-11-18T13:14:34.345Z,3.26
2022-11-18T13:17:20.716Z,3.24
2022-11-18T13:19:58.574Z,3.23
2022-11-18T13:22:48.045Z,3.29
2022-11-18T13:25:26.255Z,3.26
2022-11-18T13:28:08.274Z,3.34
2022-11-18T13:30:45.158Z,3.18
2022-11-18T13:33:13.170Z,3.04
2022-11-18T13:35:43.547Z,3.06
2022-11-18T13:38:28.075Z,3.10
2022-11-18T13:41:07.072Z,3.11
2022-11-18T13:43:36.202Z,3.07
2022-11-18T13:46:10.253Z,2.98
2022-11-18T13:48:51.633Z,3.00
2022-11-18T13:51:20.402Z,2.93
2022-11-18T13:53:48.782Z,2.99
2022-11-18T13:56:21.487Z,3.09
2022-11-18T13:59:18.753Z,3.19
2022-11-18T14:01:37.991Z,3.21
2022-11-18T14:04:16.490Z,3.35
2022-11-18T14:06:45.718Z,3.48
2022-11-18T14:09:30.740Z,3.41
2022-11-18T14:12:08.934Z,3.40
2022-11-18T14:14:39.946Z,3.51
2022-11-18T14:17:27.099Z,3.47
2022-11-18T14:19:59.653Z,3.43
2022-11-18T14:22:32.559Z,3.33
2022-11-18T14:25:03.943Z,3.05
2022-11-18T14:27:40.586Z,2.88
2022-11-18T14:30:27.165Z,2.91
2022-11-18T14:33:20.823Z,2.85
2022-11-18T14:36:11.004Z,2.59
2022-11-18T14:39:04.033Z,2.21
2022-11-18T14:42:01.289Z,2.13
2022-11-18T14:44:30.608Z,2.03
2022-11-18T14:47:21.098Z,1.93
2022-11-18T14:49:48.955Z,1.76
2022-11-18T14:52:16.885Z,1.75
2022-11-18T14:54:44.720Z,1.84
2022-11-18T14:57:17.291Z,1.84
2022-11-18T14:59:45.391Z,1.94
2022-11-18T15:02:16.886Z,1.94
2022-11-18T15:04:45.331Z,2.06
2022-11-18T15:07:20.080Z,1.79
2022-11-18T15:09:51.376Z,1.67
2022-11-18T15:12:19.547Z,1.67
2022-11-18T15:14:47.337Z,1.74
2022-11-18T15:17:15.317Z,1.74
2022-11-18T15:19:43.220Z,1.66
2022-11-18T15:22:11.274Z,1.53
2022-11-18T15:24:39.352Z,1.57
2022-11-18T15:27:10.047Z,1.51
2022-11-18T15:29:38.793Z,1.40
2022-11-18T15:32:10.073Z,1.35
2022-11-18T15:34:38.817Z,1.37
2022-11-18T15:37:07.171Z,1.33
2022-11-18T15:39:35.274Z,1.66
2022-11-18T15:42:04.140Z,1.27
2022-11-18T15:44:32.410Z,1.28
2022-11-18T15:47:02.145Z,1.24
2022-11-18T15:49:30.965Z,1.08
2022-11-18T15:51:59.750Z,1.04
2022-11-18T15:54:27.720Z,1.04
2022-11-18T15:56:55.858Z,0.93
2022-11-18T15:59:23.899Z,0.87
2022-11-18T16:01:55.522Z,0.89
2022-11-18T16:04:23.644Z,1.28
2022-11-18T16:06:52.000Z,1.07
2022-11-18T16:09:20.760Z,1.04
2022-11-18T16:12:07.492Z,1.05
2022-11-18T16:14:38.254Z,1.13
2022-11-18T16:17:06.201Z,1.52
2022-11-18T16:19:34.079Z,1.92
2022-11-18T16:22:02.251Z,2.14
2022-11-18T16:24:30.646Z,2.20
2022-11-18T16:26:58.530Z,2.20
2022-11-18T16:29:27.840Z,2.19
2022-11-18T16:31:55.737Z,2.18
2022-11-18T16:34:28.325Z,2.34
2022-11-18T16:36:59.765Z,1.99
2022-11-18T16:39:30.272Z,2.03
2022-11-18T16:42:09.091Z,1.87
2022-11-18T16:44:38.491Z,1.74
2022-11-18T16:47:13.792Z,1.65
2022-11-18T16:49:43.561Z,1.56
2022-11-18T16:52:14.057Z,1.52
2022-11-18T16:54:45.582Z,1.55
2022-11-18T16:57:14.890Z,1.68
2022-11-18T16:59:43.673Z,1.84
2022-11-18T17:02:14.001Z,1.56
2022-11-18T17:04:43.012Z,1.77
2022-11-18T17:07:11.270Z,1.76
2022-11-18T17:09:39.693Z,1.54
2022-11-18T17:12:09.772Z,1.35
2022-11-18T17:14:38.669Z,1.66
2022-11-18T17:17:07.684Z,1.59
2022-11-18T17:19:35.805Z,1.46
2022-11-18T17:22:05.736Z,1.08
2022-11-18T17:24:34.566Z,1.42
2022-11-18T17:27:03.539Z,1.20
2022-11-18T17:29:33.059Z,1.19
2022-11-18T17:32:01.751Z,1.25
2022-11-18T17:34:30.486Z,1.18
2022-11-18T17:37:04.940Z,1.32
2022-11-18T17:39:36.270Z,1.09
2022-11-18T17:42:14.218Z,1.12
2022-11-18T17:44:42.292Z,1.08
2022-11-18T17:47:10.533Z,1.30
2022-11-18T17:49:39.030Z,1.48
2022-11-18T17:52:08.724Z,1.38
2022-11-18T17:54:36.953Z,1.12
2022-11-18T17:57:24.574Z,1.57
2022-11-18T17:59:53.216Z,1.21
2022-11-18T18:02:21.651Z,1.18
2022-11-18T18:04:50.079Z,1.23
2022-11-18T18:07:18.419Z,1.21
2022-11-18T18:09:47.512Z,1.31
2022-11-18T18:12:34.551Z,1.29
2022-11-18T18:15:04.242Z,1.34
2022-11-18T18:17:33.039Z,1.39
2022-11-18T18:20:01.898Z,1.57
2022-11-18T18:22:30.786Z,1.60
2022-11-18T18:24:59.216Z,1.56
2022-11-18T18:27:31.067Z,1.64
2022-11-18T18:29:59.235Z,1.74
2022-11-18T18:32:27.209Z,1.74
2022-11-18T18:34:55.748Z,1.75
2022-11-18T18:37:24.180Z,1.56
2022-11-18T18:39:52.489Z,1.50
2022-11-18T18:42:21.322Z,1.80
2022-11-18T18:45:08.141Z,2.04
2022-11-18T18:47:36.505Z,2.02
2022-11-18T18:50:05.038Z,2.03
2022-11-18T18:52:33.908Z,2.06
2022-11-18T18:55:01.959Z,2.15
2022-11-18T18:57:30.351Z,2.14
2022-11-18T18:59:58.543Z,2.07
2022-11-18T19:02:27.090Z,2.18
2022-11-18T19:04:55.716Z,2.22
2022-11-18T19:07:24.052Z,2.16
2022-11-18T19:09:52.114Z,2.22
2022-11-18T19:12:40.335Z,2.25
2022-11-18T19:15:13.374Z,1.99
2022-11-18T19:17:42.758Z,2.07
2022-11-18T19:20:31.437Z,2.21
2022-11-18T19:23:05.630Z,2.20
2022-11-18T19:25:37.626Z,2.05
2022-11-18T19:28:06.251Z,1.91
2022-11-18T19:30:37.777Z,2.15
2022-11-18T19:33:07.972Z,2.34
2022-11-18T19:35:37.291Z,2.17
2022-11-18T19:38:06.272Z,1.87
2022-11-18T19:40:34.558Z,1.67
2022-11-18T19:43:03.007Z,1.88
2022-11-18T19:45:31.335Z,1.96
2022-11-18T19:48:01.873Z,1.94
2022-11-18T19:50:31.232Z,1.98
2022-11-18T19:53:19.837Z,2.00
2022-11-18T19:55:57.207Z,2.02
2022-11-18T19:58:29.768Z,2.12
2022-11-18T20:00:57.919Z,2.16
2022-11-18T20:03:28.310Z,1.97
2022-11-18T20:06:01.375Z,2.02
2022-11-18T20:08:33.121Z,2.00
2022-11-18T20:11:09.185Z,1.92
2022-11-18T20:13:42.244Z,1.99
2022-11-18T20:16:22.716Z,1.98
2022-11-18T20:18:56.062Z,1.76
2022-11-18T20:21:27.229Z,1.85
2022-11-18T20:23:58.043Z,1.71
2022-11-18T20:26:32.750Z,1.90
2022-11-18T20:29:02.077Z,1.97
2022-11-18T20:31:32.989Z,1.99
2022-11-18T20:34:03.553Z,1.98
2022-11-18T20:36:35.626Z,2.05
2022-11-18T20:39:08.948Z,1.94
2022-11-18T20:41:37.460Z,1.92
2022-11-18T20:44:05.852Z,1.76
2022-11-18T20:46:34.915Z,1.79
2022-11-18T20:49:03.293Z,1.98
2022-11-18T20:51:31.874Z,1.75
2022-11-18T20:54:01.155Z,1.57
2022-11-18T20:56:29.366Z,1.55
2022-11-18T20:58:58.360Z,1.80
2022-11-18T21:01:29.743Z,1.74
2022-11-18T21:04:00.470Z,1.86
2022-11-18T21:06:31.960Z,1.65
2022-11-18T21:09:04.545Z,1.86
2022-11-18T21:11:37.773Z,1.63
2022-11-18T21:14:23.936Z,1.60
2022-11-18T21:17:00.857Z,1.54
2022-11-18T21:19:32.459Z,1.53
2022-11-18T21:22:00.925Z,1.53
2022-11-18T21:24:29.909Z,1.67
2022-11-18T21:27:00.177Z,1.73
2022-11-18T21:29:31.300Z,1.77
2022-11-18T21:32:01.899Z,1.80
2022-11-18T21:34:31.101Z,1.80
2022-11-18T21:36:59.147Z,2.05
2022-11-18T21:40:01.798Z,2.09
2022-11-18T21:42:29.705Z,1.89
2022-11-18T21:44:57.745Z,1.85
2022-11-18T21:47:25.803Z,1.83
2022-11-18T21:49:53.694Z,1.77
2022-11-18T21:52:21.517Z,1.99
2022-11-18T21:54:49.513Z,2.01
2022-11-18T21:57:17.569Z,2.06
2022-11-18T21:59:45.458Z,2.02
2022-11-18T22:02:14.481Z,1.91
2022-11-18T22:04:54.940Z,1.90
2022-11-18T22:07:24.462Z,1.72
2022-11-18T22:09:52.467Z,1.67
2022-11-18T22:12:20.381Z,1.66
2022-11-18T22:14:48.414Z,1.56
2022-11-18T22:17:16.433Z,1.57
2022-11-18T22:19:44.707Z,1.71
2022-11-18T22:22:12.745Z,1.82
2022-11-18T22:24:40.742Z,1.74
2022-11-18T22:27:11.503Z,1.52
2022-11-18T22:29:39.640Z,1.52
2022-11-18T22:32:08.304Z,1.59
2022-11-18T22:34:36.073Z,1.64
2022-11-18T22:37:03.866Z,1.58
2022-11-18T22:39:31.904Z,1.67
2022-11-18T22:42:18.332Z,1.50
2022-11-18T22:44:46.122Z,1.43
2022-11-18T22:47:14.171Z,1.26
2022-11-18T22:49:41.963Z,1.18
2022-11-18T22:52:09.899Z,0.79
2022-11-18T22:54:39.649Z,0.67
2022-11-18T22:57:08.906Z,0.76
2022-11-18T22:59:37.086Z,0.73
2022-11-18T23:02:05.536Z,0.60
2022-11-18T23:04:33.748Z,0.55
2022-11-18T23:07:01.974Z,0.63
2022-11-18T23:09:30.114Z,0.67
2022-11-18T23:12:16.656Z,0.69
2022-11-18T23:14:44.533Z,0.77
2022-11-18T23:17:12.460Z,0.72
2022-11-18T23:19:43.938Z,0.76
2022-11-18T23:22:12.955Z,0.78
2022-11-18T23:24:40.840Z,0.75
2022-11-18T23:27:08.858Z,0.53
2022-11-18T23:29:36.720Z,0.17
2022-11-18T23:32:05.258Z,0.46
2022-11-18T23:34:33.014Z,0.40
2022-11-18T23:37:00.798Z,0.33
2022-11-18T23:39:28.569Z,0.33
2022-11-18T23:41:56.484Z,0.27
2022-11-18T23:44:45.430Z,0.25
2022-11-18T23:47:13.989Z,0.31
2022-11-18T23:49:41.825Z,-0.03
2022-11-18T23:52:10.071Z,-0.06
2022-11-18T23:54:38.039Z,-0.18
2022-11-18T23:57:05.938Z,-0.34
2022-11-18T23:59:33.831Z,-0.29
